ADDS METAR Data INFO
IDs: Format: Raw Decoded Include TAF

Data at: 1502 UTC 11 Dec 2017

KBHC 111455Z AUTO 28003KT 10SM CLR 06/00 A3026 RMK AO2
KBHC 111435Z AUTO 25004KT 10SM CLR 05/00 A3026 RMK AO2
KBHC 111415Z AUTO 25003KT 10SM CLR 03/00 A3026 RMK AO2
KBHC 111355Z AUTO 24003KT 10SM CLR 02/00 A3026 RMK AO2
KBHC 111335Z AUTO 00000KT 10SM CLR 00/00 A3026 RMK AO2
KBHC 111315Z AUTO 20003KT 10SM CLR 00/00 A3026 RMK AO2
KBHC 111255Z AUTO 00000KT 10SM CLR M01/M01 A3026 RMK AO2
KBHC 111235Z AUTO 00000KT 10SM CLR M02/M02 A3026 RMK AO2
KBHC 111215Z AUTO 00000KT 10SM CLR M02/M02 A3025 RMK AO2
KBHC 111155Z AUTO 20004KT 10SM CLR M02/M02 A3025 RMK AO2
KBHC 111135Z AUTO 00000KT 10SM CLR M02/M02 A3025 RMK AO2
KBHC 111115Z AUTO 00000KT 10SM CLR M02/M02 A3025 RMK AO2
KBHC 111055Z AUTO 00000KT 10SM CLR M02/M02 A3025 RMK AO2
KBHC 111035Z AUTO 00000KT 10SM CLR M02/M02 A3024 RMK AO2
KBHC 111015Z AUTO 00000KT 10SM CLR M02/M02 A3024 RMK AO2
KBHC 110950Z AUTO 00000KT 10SM CLR M02/M02 A3025 RMK AO2
KBHC 110935Z AUTO 00000KT 10SM CLR M02/M02 A3026 RMK AO2
KBHC 110915Z AUTO 20003KT 10SM CLR M01/M02 A3026 RMK AO2
KBHC 110850Z AUTO 00000KT 10SM CLR M02/M02 A3027 RMK AO2
KBHC 110835Z AUTO 00000KT 10SM CLR M01/M01 A3027 RMK AO2
KBHC 110815Z AUTO 29003KT 10SM CLR M01/M01 A3027 RMK AO2
KBHC 110755Z AUTO 00000KT 10SM CLR M01/M01 A3028 RMK AO2
KBHC 110735Z AUTO 00000KT 10SM CLR M01/M01 A3028 RMK AO2
KBHC 110710Z AUTO 00000KT 10SM CLR M01/M01 A3029 RMK AO2
KBHC 110655Z AUTO 00000KT 10SM CLR M01/M01 A3028 RMK AO2
KBHC 110635Z AUTO 00000KT 10SM CLR 00/M01 A3027 RMK AO2
KBHC 110615Z AUTO 00000KT 10SM CLR M01/M01 A3028 RMK AO2
KBHC 110555Z AUTO 00000KT 10SM CLR M01/M01 A3027 RMK AO2
KBHC 110535Z AUTO 00000KT 10SM CLR 00/00 A3027 RMK AO2
KBHC 110515Z AUTO 00000KT 10SM CLR 00/00 A3027 RMK AO2
KBHC 110455Z AUTO 00000KT 10SM CLR 00/00 A3028 RMK AO2
KBHC 110435Z AUTO 00000KT 10SM CLR 01/M01 A3028 RMK AO2
KBHC 110415Z AUTO 00000KT 10SM CLR 01/M01 A3029 RMK AO2
KBHC 110355Z AUTO 00000KT 10SM CLR 01/M01 A3029 RMK AO2
KBHC 110335Z AUTO 00000KT 10SM CLR 01/M01 A3028 RMK AO2
KBHC 110315Z AUTO 00000KT 10SM CLR 01/00 A3028 RMK AO2
KBHC 110255Z AUTO 00000KT 10SM CLR 00/00 A3028 RMK AO2
KBHC 110235Z AUTO 00000KT 10SM CLR 00/00 A3027 RMK AO2
KBHC 110215Z AUTO 00000KT 10SM CLR 00/00 A3027 RMK AO2
KBHC 110155Z AUTO 00000KT 10SM CLR 01/01 A3027 RMK AO2
KBHC 110135Z AUTO 00000KT 10SM CLR 01/00 A3027 RMK AO2
KBHC 110115Z AUTO 00000KT 10SM CLR 01/01 A3027 RMK AO2
KBHC 110055Z AUTO 00000KT 10SM CLR 01/01 A3026 RMK AO2
KBHC 110030Z AUTO 00000KT 10SM CLR 02/01 A3027 RMK AO2
KBHC 110015Z AUTO 00000KT 10SM CLR 02/01 A3027 RMK AO2
KBHC 102355Z AUTO 00000KT 10SM CLR 02/00 A3026 RMK AO2
KBHC 102335Z AUTO 00000KT 10SM CLR 03/01 A3026 RMK AO2
KBHC 102315Z AUTO 00000KT 10SM CLR 04/00 A3026 RMK AO2
KBHC 102255Z AUTO 00000KT 10SM CLR 05/00 A3025 RMK AO2
KBHC 102235Z AUTO 00000KT 10SM CLR 06/M01 A3025 RMK AO2
KBHC 102215Z AUTO 25003KT 10SM CLR 08/M03 A3024 RMK AO2
KBHC 102155Z AUTO 26003KT 10SM CLR 08/M03 A3024 RMK AO2
KBHC 102135Z AUTO 29004KT 10SM CLR 09/M03 A3025 RMK AO2
KBHC 102115Z AUTO 29005KT 10SM CLR 09/M04 A3025 RMK AO2
KBHC 102055Z AUTO 29005KT 10SM CLR 09/M04 A3024 RMK AO2
KBHC 102035Z AUTO 26004KT 10SM CLR 10/M03 A3024 RMK AO2
KBHC 102015Z AUTO 27007KT 10SM CLR 10/M04 A3024 RMK AO2
KBHC 101955Z AUTO 32007KT 10SM CLR 09/M05 A3024 RMK AO2
KBHC 101935Z AUTO 29004KT 10SM CLR 08/M05 A3024 RMK AO2
KBHC 101915Z AUTO 30007KT 10SM CLR 08/M05 A3025 RMK AO2
KBHC 101855Z AUTO 28006KT 10SM CLR 08/M05 A3026 RMK AO2
KBHC 101835Z AUTO 27007KT 10SM CLR 08/M04 A3026 RMK AO2
KBHC 101815Z AUTO 29006KT 10SM CLR 07/M03 A3027 RMK AO2
KBHC 101755Z AUTO 29004KT 10SM CLR 07/M04 A3027 RMK AO2
KBHC 101735Z AUTO 25006KT 10SM CLR 06/M03 A3028 RMK AO2
KBHC 101715Z AUTO 29006KT 10SM CLR 06/M03 A3029 RMK AO2
KBHC 101655Z AUTO 00000KT 10SM CLR 06/M04 A3029 RMK AO2
KBHC 101635Z AUTO 31007KT 10SM CLR 05/M03 A3030 RMK AO2
KBHC 101615Z AUTO 32007KT 10SM CLR 05/M04 A3031 RMK AO2
KBHC 101555Z AUTO 33005KT 10SM CLR 04/M04 A3032 RMK AO2
KBHC 101535Z AUTO 33008KT 10SM CLR 03/M05 A3032 RMK AO2
KBHC 101515Z AUTO 35007KT 10SM CLR 03/M04 A3032 RMK AO2
KBHC 101455Z AUTO 32008KT 10SM CLR 02/M04 A3032 RMK AO2
KBHC 101435Z AUTO 33008KT 10SM CLR 02/M03 A3032 RMK AO2
KBHC 101415Z AUTO 33007KT 10SM CLR 01/M03 A3032 RMK AO2
KBHC 101355Z AUTO 32007KT 10SM CLR 01/M02 A3032 RMK AO2
KBHC 101335Z AUTO 31006KT 10SM CLR 00/M02 A3031 RMK AO2
KBHC 101315Z AUTO 30004KT 10SM CLR 00/M01 A3031 RMK AO2
KBHC 101255Z AUTO 30004KT 10SM CLR 00/M01 A3030 RMK AO2
KBHC 101235Z AUTO 32004KT 10SM CLR M01/M01 A3029 RMK AO2
KBHC 101215Z AUTO 31003KT 10SM CLR M01/M01 A3030 RMK AO2
KBHC 101155Z AUTO 31003KT 10SM CLR 00/M01 A3029 RMK AO2
KBHC 101135Z AUTO 31003KT 10SM CLR 00/M01 A3028 RMK AO2
KBHC 101115Z AUTO 29003KT 10SM CLR 00/M01 A3028 RMK AO2
KBHC 101055Z AUTO 28003KT 10SM CLR 00/M01 A3027 RMK AO2
KBHC 101035Z AUTO 29004KT 10SM CLR 00/M01 A3025 RMK AO2
KBHC 101015Z AUTO 29005KT 10SM CLR 00/M01 A3025 RMK AO2
KBHC 100955Z AUTO 29006KT 10SM CLR 00/M01 A3024 RMK AO2
KBHC 100935Z AUTO 29006KT 10SM CLR 00/M01 A3023 RMK AO2
KBHC 100915Z AUTO 30006KT 10SM CLR 00/M01 A3023 RMK AO2
KBHC 100855Z AUTO 30005KT 10SM CLR 00/M01 A3022 RMK AO2
KBHC 100835Z AUTO 29003KT 10SM CLR 00/M02 A3022 RMK AO2
KBHC 100815Z AUTO 29006KT 10SM CLR 00/M02 A3021 RMK AO2
KBHC 100755Z AUTO 29005KT 10SM CLR 00/M02 A3020 RMK AO2
KBHC 100735Z AUTO 28004KT 10SM CLR 00/M02 A3019 RMK AO2
KBHC 100715Z AUTO 28004KT 10SM CLR 00/M02 A3019 RMK AO2
KBHC 100655Z AUTO 28004KT 10SM CLR 00/M02 A3019 RMK AO2
KBHC 100635Z AUTO 28004KT 10SM CLR 00/M02 A3018 RMK AO2
KBHC 100615Z AUTO 28003KT 10SM CLR 00/M02 A3019 RMK AO2
KBHC 100555Z AUTO 28004KT 10SM CLR 01/M02 A3018 RMK AO2
KBHC 100535Z AUTO 28003KT 10SM CLR 00/M02 A3018 RMK AO2
KBHC 100515Z AUTO 28004KT 10SM CLR 01/M02 A3018 RMK AO2
KBHC 100455Z AUTO 27003KT 10SM CLR 01/M02 A3017 RMK AO2
KBHC 100435Z AUTO 28004KT 10SM CLR 01/M02 A3017 RMK AO2
KBHC 100415Z AUTO 00000KT 10SM CLR 01/M01 A3017 RMK AO2
KBHC 100355Z AUTO 27004KT 10SM CLR 01/M01 A3017 RMK AO2
KBHC 100335Z AUTO 28003KT 10SM CLR 01/M01 A3016 RMK AO2
KBHC 100315Z AUTO 28004KT 10SM CLR 01/M01 A3015 RMK AO2